sensor_id;sensor_type;location;lat;lon;timestamp;P1;durP1;ratioP1;P2;durP2;ratioP2
60582;SDS011;46415;47.536;19.066;2023-05-07T00:02:53;6.85;;;6.15;;
60582;SDS011;46415;47.536;19.066;2023-05-07T00:05:57;6.50;;;5.90;;
60582;SDS011;46415;47.536;19.066;2023-05-07T00:08:59;6.65;;;5.97;;
60582;SDS011;46415;47.536;19.066;2023-05-07T00:12:03;7.95;;;6.43;;
60582;SDS011;46415;47.536;19.066;2023-05-07T00:15:06;7.85;;;6.10;;
60582;SDS011;46415;47.536;19.066;2023-05-07T00:18:10;7.07;;;6.45;;
60582;SDS011;46415;47.536;19.066;2023-05-07T00:21:13;7.35;;;6.65;;
60582;SDS011;46415;47.536;19.066;2023-05-07T00:24:17;6.72;;;6.12;;
60582;SDS011;46415;47.536;19.066;2023-05-07T00:27:19;7.10;;;6.45;;
60582;SDS011;46415;47.536;19.066;2023-05-07T00:30:22;7.70;;;6.60;;
60582;SDS011;46415;47.536;19.066;2023-05-07T00:33:25;7.20;;;6.50;;
60582;SDS011;46415;47.536;19.066;2023-05-07T00:36:29;7.95;;;7.15;;
60582;SDS011;46415;47.536;19.066;2023-05-07T00:39:33;8.82;;;7.70;;
60582;SDS011;46415;47.536;19.066;2023-05-07T00:42:36;9.05;;;7.50;;
60582;SDS011;46415;47.536;19.066;2023-05-07T00:45:40;8.70;;;7.80;;
60582;SDS011;46415;47.536;19.066;2023-05-07T00:48:43;8.80;;;7.90;;
60582;SDS011;46415;47.536;19.066;2023-05-07T00:51:47;8.73;;;7.82;;
60582;SDS011;46415;47.536;19.066;2023-05-07T00:54:50;8.68;;;7.80;;
60582;SDS011;46415;47.536;19.066;2023-05-07T00:57:53;9.27;;;8.35;;
60582;SDS011;46415;47.536;19.066;2023-05-07T01:00:56;8.90;;;8.00;;
60582;SDS011;46415;47.536;19.066;2023-05-07T01:03:58;10.15;;;9.07;;
60582;SDS011;46415;47.536;19.066;2023-05-07T01:07:02;10.68;;;9.23;;
60582;SDS011;46415;47.536;19.066;2023-05-07T01:10:05;10.75;;;9.65;;
60582;SDS011;46415;47.536;19.066;2023-05-07T01:13:10;11.02;;;9.32;;
60582;SDS011;46415;47.536;19.066;2023-05-07T01:16:17;11.02;;;9.68;;
60582;SDS011;46415;47.536;19.066;2023-05-07T01:19:20;11.45;;;9.57;;
60582;SDS011;46415;47.536;19.066;2023-05-07T01:22:28;11.10;;;9.90;;
60582;SDS011;46415;47.536;19.066;2023-05-07T01:25:36;10.85;;;9.75;;
60582;SDS011;46415;47.536;19.066;2023-05-07T01:28:39;11.70;;;9.38;;
60582;SDS011;46415;47.536;19.066;2023-05-07T01:31:42;10.25;;;9.10;;
60582;SDS011;46415;47.536;19.066;2023-05-07T01:34:46;11.35;;;8.90;;
60582;SDS011;46415;47.536;19.066;2023-05-07T01:37:50;11.15;;;9.50;;
60582;SDS011;46415;47.536;19.066;2023-05-07T01:40:53;9.93;;;8.55;;
60582;SDS011;46415;47.536;19.066;2023-05-07T01:43:57;10.68;;;9.00;;
60582;SDS011;46415;47.536;19.066;2023-05-07T01:47:01;9.77;;;8.70;;
60582;SDS011;46415;47.536;19.066;2023-05-07T01:50:06;12.15;;;9.15;;
60582;SDS011;46415;47.536;19.066;2023-05-07T01:53:11;10.10;;;8.57;;
60582;SDS011;46415;47.536;19.066;2023-05-07T01:56:14;11.45;;;8.88;;
60582;SDS011;46415;47.536;19.066;2023-05-07T01:59:17;10.38;;;8.90;;
60582;SDS011;46415;47.536;19.066;2023-05-07T02:02:21;10.80;;;8.98;;
60582;SDS011;46415;47.536;19.066;2023-05-07T02:05:24;9.52;;;8.52;;
60582;SDS011;46415;47.536;19.066;2023-05-07T02:08:28;10.32;;;9.25;;
60582;SDS011;46415;47.536;19.066;2023-05-07T02:11:31;11.15;;;9.20;;
60582;SDS011;46415;47.536;19.066;2023-05-07T02:14:34;10.45;;;9.35;;
60582;SDS011;46415;47.536;19.066;2023-05-07T02:17:57;10.00;;;8.82;;
60582;SDS011;46415;47.536;19.066;2023-05-07T02:21:04;11.55;;;9.32;;
60582;SDS011;46415;47.536;19.066;2023-05-07T02:24:07;10.45;;;9.18;;
60582;SDS011;46415;47.536;19.066;2023-05-07T02:27:10;10.75;;;9.50;;
60582;SDS011;46415;47.536;19.066;2023-05-07T02:30:13;10.50;;;9.40;;
60582;SDS011;46415;47.536;19.066;2023-05-07T02:33:17;11.98;;;9.68;;
60582;SDS011;46415;47.536;19.066;2023-05-07T02:36:20;12.93;;;9.98;;
60582;SDS011;46415;47.536;19.066;2023-05-07T02:39:23;9.57;;;8.05;;
60582;SDS011;46415;47.536;19.066;2023-05-07T02:42:26;10.40;;;9.05;;
60582;SDS011;46415;47.536;19.066;2023-05-07T02:45:29;10.55;;;9.02;;
60582;SDS011;46415;47.536;19.066;2023-05-07T02:48:32;9.93;;;8.60;;
60582;SDS011;46415;47.536;19.066;2023-05-07T02:51:36;9.98;;;8.55;;
60582;SDS011;46415;47.536;19.066;2023-05-07T02:54:40;10.23;;;8.52;;
60582;SDS011;46415;47.536;19.066;2023-05-07T02:57:43;10.20;;;8.48;;
60582;SDS011;46415;47.536;19.066;2023-05-07T03:00:46;11.27;;;8.25;;
60582;SDS011;46415;47.536;19.066;2023-05-07T03:03:50;9.50;;;8.43;;
60582;SDS011;46415;47.536;19.066;2023-05-07T03:06:53;8.85;;;7.95;;
60582;SDS011;46415;47.536;19.066;2023-05-07T03:09:57;9.50;;;8.50;;
60582;SDS011;46415;47.536;19.066;2023-05-07T03:13:00;8.57;;;7.62;;
60582;SDS011;46415;47.536;19.066;2023-05-07T03:16:03;8.18;;;7.37;;
60582;SDS011;46415;47.536;19.066;2023-05-07T03:19:07;8.38;;;7.57;;
60582;SDS011;46415;47.536;19.066;2023-05-07T03:22:10;8.82;;;7.93;;
60582;SDS011;46415;47.536;19.066;2023-05-07T03:25:12;8.13;;;7.30;;
60582;SDS011;46415;47.536;19.066;2023-05-07T03:28:16;7.95;;;7.05;;
60582;SDS011;46415;47.536;19.066;2023-05-07T03:31:19;7.80;;;7.00;;
60582;SDS011;46415;47.536;19.066;2023-05-07T03:34:22;9.25;;;7.65;;
60582;SDS011;46415;47.536;19.066;2023-05-07T03:37:25;7.70;;;6.95;;
60582;SDS011;46415;47.536;19.066;2023-05-07T03:40:28;8.30;;;7.07;;
60582;SDS011;46415;47.536;19.066;2023-05-07T03:43:31;7.15;;;6.45;;
60582;SDS011;46415;47.536;19.066;2023-05-07T03:46:35;7.53;;;6.72;;
60582;SDS011;46415;47.536;19.066;2023-05-07T03:49:38;7.32;;;6.50;;
60582;SDS011;46415;47.536;19.066;2023-05-07T03:52:41;7.80;;;7.00;;
60582;SDS011;46415;47.536;19.066;2023-05-07T03:55:44;8.40;;;6.53;;
60582;SDS011;46415;47.536;19.066;2023-05-07T03:58:47;7.85;;;7.15;;
60582;SDS011;46415;47.536;19.066;2023-05-07T04:01:50;7.43;;;6.68;;
60582;SDS011;46415;47.536;19.066;2023-05-07T04:04:53;7.50;;;6.80;;
60582;SDS011;46415;47.536;19.066;2023-05-07T04:07:59;8.18;;;7.00;;
60582;SDS011;46415;47.536;19.066;2023-05-07T04:11:03;10.90;;;8.85;;
60582;SDS011;46415;47.536;19.066;2023-05-07T04:14:06;9.82;;;8.15;;
60582;SDS011;46415;47.536;19.066;2023-05-07T04:17:09;9.95;;;8.05;;
60582;SDS011;46415;47.536;19.066;2023-05-07T04:20:14;8.98;;;8.07;;
60582;SDS011;46415;47.536;19.066;2023-05-07T04:23:19;9.27;;;8.23;;
60582;SDS011;46415;47.536;19.066;2023-05-07T04:26:22;9.57;;;8.50;;
60582;SDS011;46415;47.536;19.066;2023-05-07T04:29:25;8.98;;;8.05;;
60582;SDS011;46415;47.536;19.066;2023-05-07T04:32:29;9.35;;;8.43;;
60582;SDS011;46415;47.536;19.066;2023-05-07T04:35:32;9.88;;;8.43;;
60582;SDS011;46415;47.536;19.066;2023-05-07T04:38:35;9.85;;;8.90;;
60582;SDS011;46415;47.536;19.066;2023-05-07T04:41:39;9.70;;;8.20;;
60582;SDS011;46415;47.536;19.066;2023-05-07T04:44:42;10.57;;;8.70;;
60582;SDS011;46415;47.536;19.066;2023-05-07T04:47:46;9.48;;;8.10;;
60582;SDS011;46415;47.536;19.066;2023-05-07T04:50:49;8.90;;;7.57;;
60582;SDS011;46415;47.536;19.066;2023-05-07T04:53:53;9.50;;;8.60;;
60582;SDS011;46415;47.536;19.066;2023-05-07T04:56:56;10.75;;;8.38;;
60582;SDS011;46415;47.536;19.066;2023-05-07T05:00:02;9.65;;;8.65;;
60582;SDS011;46415;47.536;19.066;2023-05-07T05:03:07;9.48;;;8.38;;
60582;SDS011;46415;47.536;19.066;2023-05-07T05:06:11;8.90;;;8.00;;
60582;SDS011;46415;47.536;19.066;2023-05-07T05:09:14;10.57;;;8.38;;
60582;SDS011;46415;47.536;19.066;2023-05-07T05:12:19;9.55;;;8.63;;
60582;SDS011;46415;47.536;19.066;2023-05-07T05:15:21;8.90;;;8.00;;
60582;SDS011;46415;47.536;19.066;2023-05-07T05:18:24;9.48;;;8.48;;
60582;SDS011;46415;47.536;19.066;2023-05-07T05:21:27;8.98;;;7.82;;
60582;SDS011;46415;47.536;19.066;2023-05-07T05:24:31;8.77;;;7.82;;
60582;SDS011;46415;47.536;19.066;2023-05-07T05:27:34;10.45;;;8.35;;
60582;SDS011;46415;47.536;19.066;2023-05-07T05:30:39;8.52;;;7.68;;
60582;SDS011;46415;47.536;19.066;2023-05-07T05:33:42;9.55;;;8.55;;
60582;SDS011;46415;47.536;19.066;2023-05-07T05:36:46;9.90;;;8.75;;
60582;SDS011;46415;47.536;19.066;2023-05-07T05:39:49;8.52;;;7.82;;
60582;SDS011;46415;47.536;19.066;2023-05-07T05:42:53;8.40;;;7.60;;
60582;SDS011;46415;47.536;19.066;2023-05-07T05:45:56;8.88;;;7.97;;
60582;SDS011;46415;47.536;19.066;2023-05-07T05:49:00;8.32;;;7.53;;
60582;SDS011;46415;47.536;19.066;2023-05-07T05:52:03;8.23;;;7.32;;
60582;SDS011;46415;47.536;19.066;2023-05-07T05:55:07;8.38;;;7.37;;
60582;SDS011;46415;47.536;19.066;2023-05-07T05:58:10;9.10;;;7.65;;
60582;SDS011;46415;47.536;19.066;2023-05-07T06:01:14;7.65;;;6.85;;
60582;SDS011;46415;47.536;19.066;2023-05-07T06:04:18;9.07;;;8.18;;
60582;SDS011;46415;47.536;19.066;2023-05-07T06:07:21;8.82;;;7.93;;
60582;SDS011;46415;47.536;19.066;2023-05-07T06:10:25;9.20;;;8.27;;
60582;SDS011;46415;47.536;19.066;2023-05-07T06:13:29;9.02;;;7.43;;
60582;SDS011;46415;47.536;19.066;2023-05-07T06:16:35;8.13;;;7.40;;
60582;SDS011;46415;47.536;19.066;2023-05-07T06:19:40;8.20;;;7.40;;
60582;SDS011;46415;47.536;19.066;2023-05-07T06:22:44;9.68;;;8.25;;
60582;SDS011;46415;47.536;19.066;2023-05-07T06:25:48;10.18;;;8.60;;
60582;SDS011;46415;47.536;19.066;2023-05-07T06:28:53;9.07;;;8.18;;
60582;SDS011;46415;47.536;19.066;2023-05-07T06:31:56;8.95;;;8.05;;
60582;SDS011;46415;47.536;19.066;2023-05-07T06:34:59;9.75;;;7.47;;
60582;SDS011;46415;47.536;19.066;2023-05-07T06:38:02;8.82;;;7.22;;
60582;SDS011;46415;47.536;19.066;2023-05-07T06:41:05;7.45;;;6.75;;
60582;SDS011;46415;47.536;19.066;2023-05-07T06:44:09;7.25;;;6.12;;
60582;SDS011;46415;47.536;19.066;2023-05-07T06:47:12;6.03;;;5.53;;
60582;SDS011;46415;47.536;19.066;2023-05-07T06:50:18;7.20;;;6.50;;
60582;SDS011;46415;47.536;19.066;2023-05-07T06:53:21;6.50;;;5.90;;
60582;SDS011;46415;47.536;19.066;2023-05-07T06:56:25;6.97;;;6.28;;
60582;SDS011;46415;47.536;19.066;2023-05-07T06:59:28;6.60;;;5.60;;
60582;SDS011;46415;47.536;19.066;2023-05-07T07:02:31;6.40;;;5.80;;
60582;SDS011;46415;47.536;19.066;2023-05-07T07:05:34;8.30;;;7.50;;
60582;SDS011;46415;47.536;19.066;2023-05-07T07:08:37;7.57;;;6.87;;
60582;SDS011;46415;47.536;19.066;2023-05-07T07:11:42;8.77;;;6.53;;
60582;SDS011;46415;47.536;19.066;2023-05-07T07:14:44;6.50;;;5.87;;
60582;SDS011;46415;47.536;19.066;2023-05-07T07:17:49;6.07;;;5.32;;
60582;SDS011;46415;47.536;19.066;2023-05-07T07:20:51;6.72;;;6.03;;
60582;SDS011;46415;47.536;19.066;2023-05-07T07:23:55;6.62;;;5.95;;
60582;SDS011;46415;47.536;19.066;2023-05-07T07:26:58;6.80;;;6.10;;
60582;SDS011;46415;47.536;19.066;2023-05-07T07:30:01;7.95;;;6.95;;
60582;SDS011;46415;47.536;19.066;2023-05-07T07:33:05;7.30;;;6.60;;
60582;SDS011;46415;47.536;19.066;2023-05-07T07:36:09;7.25;;;6.55;;
60582;SDS011;46415;47.536;19.066;2023-05-07T07:39:12;7.30;;;6.55;;
60582;SDS011;46415;47.536;19.066;2023-05-07T07:42:16;7.00;;;6.15;;
60582;SDS011;46415;47.536;19.066;2023-05-07T07:45:19;6.60;;;5.90;;
60582;SDS011;46415;47.536;19.066;2023-05-07T07:48:22;6.57;;;5.97;;
60582;SDS011;46415;47.536;19.066;2023-05-07T07:51:25;6.35;;;5.75;;
60582;SDS011;46415;47.536;19.066;2023-05-07T07:54:30;5.40;;;4.90;;
60582;SDS011;46415;47.536;19.066;2023-05-07T07:57:33;5.62;;;4.93;;
60582;SDS011;46415;47.536;19.066;2023-05-07T08:00:37;4.93;;;4.53;;
60582;SDS011;46415;47.536;19.066;2023-05-07T08:03:40;4.70;;;4.20;;
60582;SDS011;46415;47.536;19.066;2023-05-07T08:06:43;4.30;;;3.90;;
60582;SDS011;46415;47.536;19.066;2023-05-07T08:09:47;5.95;;;4.30;;
60582;SDS011;46415;47.536;19.066;2023-05-07T08:12:50;4.97;;;4.37;;
60582;SDS011;46415;47.536;19.066;2023-05-07T08:15:56;3.87;;;3.17;;
60582;SDS011;46415;47.536;19.066;2023-05-07T08:18:59;2.40;;;2.30;;
60582;SDS011;46415;47.536;19.066;2023-05-07T08:22:02;2.22;;;2.12;;
60582;SDS011;46415;47.536;19.066;2023-05-07T08:25:07;2.17;;;2.08;;
60582;SDS011;46415;47.536;19.066;2023-05-07T08:28:10;2.60;;;2.40;;
60582;SDS011;46415;47.536;19.066;2023-05-07T08:31:14;2.58;;;2.37;;
60582;SDS011;46415;47.536;19.066;2023-05-07T08:34:18;2.90;;;2.70;;
60582;SDS011;46415;47.536;19.066;2023-05-07T08:37:21;2.30;;;2.20;;
60582;SDS011;46415;47.536;19.066;2023-05-07T08:40:25;2.37;;;2.17;;
60582;SDS011;46415;47.536;19.066;2023-05-07T08:43:32;2.17;;;2.00;;
60582;SDS011;46415;47.536;19.066;2023-05-07T08:46:38;2.35;;;2.15;;
60582;SDS011;46415;47.536;19.066;2023-05-07T08:49:42;2.83;;;1.70;;
60582;SDS011;46415;47.536;19.066;2023-05-07T08:52:45;2.28;;;1.60;;
60582;SDS011;46415;47.536;19.066;2023-05-07T08:55:51;2.17;;;1.92;;
60582;SDS011;46415;47.536;19.066;2023-05-07T08:58:55;1.70;;;1.60;;
60582;SDS011;46415;47.536;19.066;2023-05-07T09:02:01;1.52;;;1.42;;
60582;SDS011;46415;47.536;19.066;2023-05-07T09:05:05;1.40;;;1.25;;
60582;SDS011;46415;47.536;19.066;2023-05-07T09:08:08;1.92;;;1.40;;
60582;SDS011;46415;47.536;19.066;2023-05-07T09:11:12;1.52;;;1.42;;
60582;SDS011;46415;47.536;19.066;2023-05-07T09:14:15;1.98;;;1.87;;
60582;SDS011;46415;47.536;19.066;2023-05-07T09:17:18;2.25;;;2.15;;
60582;SDS011;46415;47.536;19.066;2023-05-07T09:20:21;2.00;;;1.90;;
60582;SDS011;46415;47.536;19.066;2023-05-07T09:23:25;2.30;;;2.15;;
60582;SDS011;46415;47.536;19.066;2023-05-07T09:26:28;2.50;;;2.40;;
60582;SDS011;46415;47.536;19.066;2023-05-07T09:29:31;2.62;;;2.42;;
60582;SDS011;46415;47.536;19.066;2023-05-07T09:32:40;3.85;;;2.58;;
60582;SDS011;46415;47.536;19.066;2023-05-07T09:35:44;2.55;;;2.35;;
60582;SDS011;46415;47.536;19.066;2023-05-07T09:38:47;2.78;;;2.58;;
60582;SDS011;46415;47.536;19.066;2023-05-07T09:41:54;2.70;;;2.50;;
60582;SDS011;46415;47.536;19.066;2023-05-07T09:44:58;2.83;;;2.62;;
60582;SDS011;46415;47.536;19.066;2023-05-07T09:48:04;2.58;;;2.28;;
60582;SDS011;46415;47.536;19.066;2023-05-07T09:51:24;2.60;;;2.40;;
60582;SDS011;46415;47.536;19.066;2023-05-07T09:54:32;2.25;;;2.15;;
60582;SDS011;46415;47.536;19.066;2023-05-07T09:57:37;2.62;;;2.40;;
60582;SDS011;46415;47.536;19.066;2023-05-07T10:00:41;2.37;;;2.28;;
60582;SDS011;46415;47.536;19.066;2023-05-07T10:03:45;2.50;;;2.30;;
60582;SDS011;46415;47.536;19.066;2023-05-07T10:06:49;2.78;;;2.45;;
60582;SDS011;46415;47.536;19.066;2023-05-07T10:09:53;3.30;;;2.55;;
60582;SDS011;46415;47.536;19.066;2023-05-07T10:12:57;3.28;;;2.45;;
60582;SDS011;46415;47.536;19.066;2023-05-07T10:16:03;2.53;;;2.33;;
60582;SDS011;46415;47.536;19.066;2023-05-07T10:19:07;2.67;;;2.45;;
60582;SDS011;46415;47.536;19.066;2023-05-07T10:25:23;2.92;;;2.70;;
60582;SDS011;46415;47.536;19.066;2023-05-07T10:28:33;2.60;;;2.50;;
60582;SDS011;46415;47.536;19.066;2023-05-07T10:35:10;2.53;;;2.40;;
60582;SDS011;46415;47.536;19.066;2023-05-07T10:38:35;2.67;;;2.30;;
60582;SDS011;46415;47.536;19.066;2023-05-07T10:41:40;2.40;;;2.30;;
60582;SDS011;46415;47.536;19.066;2023-05-07T10:44:44;2.47;;;2.33;;
60582;SDS011;46415;47.536;19.066;2023-05-07T10:51:23;3.92;;;2.50;;
60582;SDS011;46415;47.536;19.066;2023-05-07T10:54:26;3.40;;;2.55;;
60582;SDS011;46415;47.536;19.066;2023-05-07T10:57:35;2.75;;;2.55;;
60582;SDS011;46415;47.536;19.066;2023-05-07T11:07:23;4.37;;;3.20;;
60582;SDS011;46415;47.536;19.066;2023-05-07T11:10:47;3.25;;;3.05;;
60582;SDS011;46415;47.536;19.066;2023-05-07T11:13:59;3.12;;;2.92;;
60582;SDS011;46415;47.536;19.066;2023-05-07T11:17:02;3.20;;;3.00;;
60582;SDS011;46415;47.536;19.066;2023-05-07T11:20:08;4.22;;;3.05;;
60582;SDS011;46415;47.536;19.066;2023-05-07T11:26:46;3.20;;;3.00;;
60582;SDS011;46415;47.536;19.066;2023-05-07T11:29:49;2.85;;;2.62;;
60582;SDS011;46415;47.536;19.066;2023-05-07T11:32:53;3.15;;;2.85;;
60582;SDS011;46415;47.536;19.066;2023-05-07T11:35:56;2.80;;;2.62;;
60582;SDS011;46415;47.536;19.066;2023-05-07T11:39:00;2.70;;;2.50;;
60582;SDS011;46415;47.536;19.066;2023-05-07T11:42:02;2.85;;;2.65;;
60582;SDS011;46415;47.536;19.066;2023-05-07T11:45:06;3.03;;;2.83;;
60582;SDS011;46415;47.536;19.066;2023-05-07T11:48:10;2.62;;;2.42;;
60582;SDS011;46415;47.536;19.066;2023-05-07T11:51:13;2.78;;;2.58;;
60582;SDS011;46415;47.536;19.066;2023-05-07T11:54:21;2.58;;;2.40;;
60582;SDS011;46415;47.536;19.066;2023-05-07T11:57:24;2.37;;;2.28;;
60582;SDS011;46415;47.536;19.066;2023-05-07T12:00:27;2.87;;;2.67;;
60582;SDS011;46415;47.536;19.066;2023-05-07T12:03:30;2.62;;;2.40;;
60582;SDS011;46415;47.536;19.066;2023-05-07T12:06:37;2.75;;;2.47;;
60582;SDS011;46415;47.536;19.066;2023-05-07T12:09:41;2.58;;;2.37;;
60582;SDS011;46415;47.536;19.066;2023-05-07T12:12:45;2.97;;;2.78;;
60582;SDS011;46415;47.536;19.066;2023-05-07T12:15:52;2.97;;;2.78;;
60582;SDS011;46415;47.536;19.066;2023-05-07T12:18:56;2.55;;;2.37;;
60582;SDS011;46415;47.536;19.066;2023-05-07T12:22:04;2.75;;;2.55;;
60582;SDS011;46415;47.536;19.066;2023-05-07T12:25:07;2.83;;;2.60;;
60582;SDS011;46415;47.536;19.066;2023-05-07T12:28:15;2.67;;;2.33;;
60582;SDS011;46415;47.536;19.066;2023-05-07T12:31:19;2.72;;;2.53;;
60582;SDS011;46415;47.536;19.066;2023-05-07T12:34:22;2.20;;;2.10;;
60582;SDS011;46415;47.536;19.066;2023-05-07T12:37:25;2.85;;;2.65;;
60582;SDS011;46415;47.536;19.066;2023-05-07T12:40:40;2.65;;;2.35;;
60582;SDS011;46415;47.536;19.066;2023-05-07T12:43:44;2.80;;;2.70;;
60582;SDS011;46415;47.536;19.066;2023-05-07T12:46:48;2.78;;;2.58;;
60582;SDS011;46415;47.536;19.066;2023-05-07T12:49:51;2.85;;;2.65;;
60582;SDS011;46415;47.536;19.066;2023-05-07T12:52:56;2.53;;;2.33;;
60582;SDS011;46415;47.536;19.066;2023-05-07T12:55:59;2.62;;;2.42;;
60582;SDS011;46415;47.536;19.066;2023-05-07T12:59:02;2.87;;;2.67;;
60582;SDS011;46415;47.536;19.066;2023-05-07T13:02:06;3.92;;;3.37;;
60582;SDS011;46415;47.536;19.066;2023-05-07T13:05:10;2.90;;;2.70;;
60582;SDS011;46415;47.536;19.066;2023-05-07T13:08:22;3.30;;;2.90;;
60582;SDS011;46415;47.536;19.066;2023-05-07T13:11:26;3.20;;;2.90;;
60582;SDS011;46415;47.536;19.066;2023-05-07T13:14:29;2.62;;;2.42;;
60582;SDS011;46415;47.536;19.066;2023-05-07T13:17:32;2.97;;;2.58;;
60582;SDS011;46415;47.536;19.066;2023-05-07T13:20:35;3.00;;;2.80;;
60582;SDS011;46415;47.536;19.066;2023-05-07T13:23:38;2.87;;;2.67;;
60582;SDS011;46415;47.536;19.066;2023-05-07T13:26:41;2.83;;;2.45;;
60582;SDS011;46415;47.536;19.066;2023-05-07T13:29:47;2.42;;;2.30;;
60582;SDS011;46415;47.536;19.066;2023-05-07T13:32:50;2.78;;;2.58;;
60582;SDS011;46415;47.536;19.066;2023-05-07T13:35:55;2.80;;;2.60;;
60582;SDS011;46415;47.536;19.066;2023-05-07T13:38:59;3.15;;;2.90;;
60582;SDS011;46415;47.536;19.066;2023-05-07T13:42:03;2.80;;;2.60;;
60582;SDS011;46415;47.536;19.066;2023-05-07T13:45:05;2.80;;;2.60;;
60582;SDS011;46415;47.536;19.066;2023-05-07T13:48:09;2.83;;;2.62;;
60582;SDS011;46415;47.536;19.066;2023-05-07T13:51:12;2.90;;;2.70;;
60582;SDS011;46415;47.536;19.066;2023-05-07T13:54:15;3.20;;;2.83;;
60582;SDS011;46415;47.536;19.066;2023-05-07T13:57:18;4.20;;;3.65;;
60582;SDS011;46415;47.536;19.066;2023-05-07T14:00:21;3.85;;;3.03;;
60582;SDS011;46415;47.536;19.066;2023-05-07T14:03:24;3.00;;;2.70;;
60582;SDS011;46415;47.536;19.066;2023-05-07T14:06:27;2.80;;;2.60;;
60582;SDS011;46415;47.536;19.066;2023-05-07T14:09:30;2.83;;;2.53;;
60582;SDS011;46415;47.536;19.066;2023-05-07T14:12:33;2.67;;;2.47;;
60582;SDS011;46415;47.536;19.066;2023-05-07T14:15:36;3.30;;;3.00;;
60582;SDS011;46415;47.536;19.066;2023-05-07T14:18:39;2.50;;;2.30;;
60582;SDS011;46415;47.536;19.066;2023-05-07T14:21:42;2.53;;;2.30;;
60582;SDS011;46415;47.536;19.066;2023-05-07T14:24:45;2.58;;;2.47;;
60582;SDS011;46415;47.536;19.066;2023-05-07T14:28:01;2.40;;;2.20;;
60582;SDS011;46415;47.536;19.066;2023-05-07T14:31:03;2.58;;;2.37;;
60582;SDS011;46415;47.536;19.066;2023-05-07T14:34:06;3.67;;;3.28;;
60582;SDS011;46415;47.536;19.066;2023-05-07T14:37:09;2.45;;;2.25;;
60582;SDS011;46415;47.536;19.066;2023-05-07T14:40:12;2.85;;;2.47;;
60582;SDS011;46415;47.536;19.066;2023-05-07T14:43:16;3.75;;;2.50;;
60582;SDS011;46415;47.536;19.066;2023-05-07T14:46:19;3.25;;;2.47;;
60582;SDS011;46415;47.536;19.066;2023-05-07T14:49:22;2.90;;;2.70;;
60582;SDS011;46415;47.536;19.066;2023-05-07T14:52:26;2.70;;;2.50;;
60582;SDS011;46415;47.536;19.066;2023-05-07T14:55:29;3.67;;;2.80;;
60582;SDS011;46415;47.536;19.066;2023-05-07T14:58:35;3.40;;;2.65;;
60582;SDS011;46415;47.536;19.066;2023-05-07T15:01:38;3.40;;;3.20;;
60582;SDS011;46415;47.536;19.066;2023-05-07T15:04:42;3.40;;;3.17;;
60582;SDS011;46415;47.536;19.066;2023-05-07T15:07:48;3.35;;;3.05;;
60582;SDS011;46415;47.536;19.066;2023-05-07T15:10:51;3.83;;;3.30;;
60582;SDS011;46415;47.536;19.066;2023-05-07T15:13:54;3.12;;;2.92;;
60582;SDS011;46415;47.536;19.066;2023-05-07T15:16:57;3.03;;;2.75;;
60582;SDS011;46415;47.536;19.066;2023-05-07T15:19:59;3.47;;;3.17;;
60582;SDS011;46415;47.536;19.066;2023-05-07T15:23:03;3.20;;;3.00;;
60582;SDS011;46415;47.536;19.066;2023-05-07T15:26:12;3.37;;;2.65;;
60582;SDS011;46415;47.536;19.066;2023-05-07T15:29:15;3.70;;;3.37;;
60582;SDS011;46415;47.536;19.066;2023-05-07T15:32:18;3.22;;;3.03;;
60582;SDS011;46415;47.536;19.066;2023-05-07T15:35:21;3.20;;;2.90;;
60582;SDS011;46415;47.536;19.066;2023-05-07T15:38:25;2.80;;;2.60;;
60582;SDS011;46415;47.536;19.066;2023-05-07T15:41:28;2.72;;;2.58;;
60582;SDS011;46415;47.536;19.066;2023-05-07T15:44:34;2.67;;;2.47;;
60582;SDS011;46415;47.536;19.066;2023-05-07T15:47:38;2.30;;;2.20;;
60582;SDS011;46415;47.536;19.066;2023-05-07T15:50:41;2.83;;;2.62;;
60582;SDS011;46415;47.536;19.066;2023-05-07T15:53:44;2.20;;;2.10;;
60582;SDS011;46415;47.536;19.066;2023-05-07T15:56:47;2.45;;;2.25;;
60582;SDS011;46415;47.536;19.066;2023-05-07T15:59:50;2.12;;;1.80;;
60582;SDS011;46415;47.536;19.066;2023-05-07T16:02:53;2.00;;;1.83;;
60582;SDS011;46415;47.536;19.066;2023-05-07T16:05:56;2.05;;;1.85;;
60582;SDS011;46415;47.536;19.066;2023-05-07T16:08:59;1.92;;;1.83;;
60582;SDS011;46415;47.536;19.066;2023-05-07T16:12:02;1.70;;;1.60;;
60582;SDS011;46415;47.536;19.066;2023-05-07T16:15:05;2.28;;;2.08;;
60582;SDS011;46415;47.536;19.066;2023-05-07T16:18:08;2.00;;;1.90;;
60582;SDS011;46415;47.536;19.066;2023-05-07T16:21:11;1.70;;;1.60;;
60582;SDS011;46415;47.536;19.066;2023-05-07T16:24:15;1.70;;;1.60;;
60582;SDS011;46415;47.536;19.066;2023-05-07T16:27:17;1.87;;;1.77;;
60582;SDS011;46415;47.536;19.066;2023-05-07T16:30:20;2.33;;;1.98;;
60582;SDS011;46415;47.536;19.066;2023-05-07T16:33:23;1.85;;;1.73;;
60582;SDS011;46415;47.536;19.066;2023-05-07T16:36:26;1.80;;;1.70;;
60582;SDS011;46415;47.536;19.066;2023-05-07T16:39:30;1.83;;;1.70;;
60582;SDS011;46415;47.536;19.066;2023-05-07T16:42:34;1.80;;;1.70;;
60582;SDS011;46415;47.536;19.066;2023-05-07T16:45:37;1.80;;;1.70;;
60582;SDS011;46415;47.536;19.066;2023-05-07T16:48:43;2.30;;;1.90;;
60582;SDS011;46415;47.536;19.066;2023-05-07T16:51:46;1.95;;;1.80;;
60582;SDS011;46415;47.536;19.066;2023-05-07T16:54:48;3.70;;;1.70;;
60582;SDS011;46415;47.536;19.066;2023-05-07T16:57:51;1.60;;;1.50;;
60582;SDS011;46415;47.536;19.066;2023-05-07T17:00:54;1.90;;;1.80;;
60582;SDS011;46415;47.536;19.066;2023-05-07T17:03:57;2.15;;;1.95;;
60582;SDS011;46415;47.536;19.066;2023-05-07T17:07:00;3.80;;;2.30;;
60582;SDS011;46415;47.536;19.066;2023-05-07T17:10:03;1.83;;;1.73;;
60582;SDS011;46415;47.536;19.066;2023-05-07T17:13:06;1.75;;;1.65;;
60582;SDS011;46415;47.536;19.066;2023-05-07T17:16:09;2.10;;;2.00;;
60582;SDS011;46415;47.536;19.066;2023-05-07T17:19:12;3.00;;;1.80;;
60582;SDS011;46415;47.536;19.066;2023-05-07T17:22:15;1.83;;;1.70;;
60582;SDS011;46415;47.536;19.066;2023-05-07T17:25:18;1.83;;;1.73;;
60582;SDS011;46415;47.536;19.066;2023-05-07T17:28:21;2.15;;;1.58;;
60582;SDS011;46415;47.536;19.066;2023-05-07T17:31:24;2.20;;;1.90;;
60582;SDS011;46415;47.536;19.066;2023-05-07T17:34:27;2.00;;;1.90;;
60582;SDS011;46415;47.536;19.066;2023-05-07T17:37:30;1.83;;;1.58;;
60582;SDS011;46415;47.536;19.066;2023-05-07T17:40:33;2.78;;;2.40;;
60582;SDS011;46415;47.536;19.066;2023-05-07T17:43:36;2.78;;;1.90;;
60582;SDS011;46415;47.536;19.066;2023-05-07T17:46:39;2.00;;;1.90;;
60582;SDS011;46415;47.536;19.066;2023-05-07T17:49:42;2.10;;;1.90;;
60582;SDS011;46415;47.536;19.066;2023-05-07T17:52:45;1.98;;;1.80;;
60582;SDS011;46415;47.536;19.066;2023-05-07T17:55:48;1.90;;;1.80;;
60582;SDS011;46415;47.536;19.066;2023-05-07T17:58:51;2.58;;;2.37;;
60582;SDS011;46415;47.536;19.066;2023-05-07T18:02:01;2.28;;;2.08;;
60582;SDS011;46415;47.536;19.066;2023-05-07T18:05:04;2.50;;;2.30;;
60582;SDS011;46415;47.536;19.066;2023-05-07T18:08:06;2.60;;;2.40;;
60582;SDS011;46415;47.536;19.066;2023-05-07T18:11:10;2.67;;;2.47;;
60582;SDS011;46415;47.536;19.066;2023-05-07T18:14:13;2.87;;;2.67;;
60582;SDS011;46415;47.536;19.066;2023-05-07T18:17:16;2.90;;;2.65;;
60582;SDS011;46415;47.536;19.066;2023-05-07T18:20:18;2.90;;;2.70;;
60582;SDS011;46415;47.536;19.066;2023-05-07T18:23:22;3.75;;;3.20;;
60582;SDS011;46415;47.536;19.066;2023-05-07T18:26:25;3.15;;;2.87;;
60582;SDS011;46415;47.536;19.066;2023-05-07T18:29:28;3.00;;;2.72;;
60582;SDS011;46415;47.536;19.066;2023-05-07T18:32:31;4.25;;;2.70;;